Time;durP1;ratioP1;P1;durP2;ratioP2;P2;SDS_P1;SDS_P2;PMS_P1;PMS_P2;Temp;Humidity;BMP_temperature;BMP_pressure;BME280_temperature;BME280_humidity;BME280_pressure;Samples;Min_cycle;Max_cycle;Signal;HPM_P1;HPM_P2
2022/08/14 00:00:27;;;;;;;;;;;25.70;33.50;;;;;;1530203;77;725;-74
2022/08/14 00:02:29;;;;;;;;;;;25.70;33.50;;;;;;1533037;76;823;-73
2022/08/14 00:04:32;;;;;;;;;;;25.70;33.50;;;;;;1531193;76;611;-73
2022/08/14 00:06:34;;;;;;;;;;;25.70;33.60;;;;;;1531335;76;1168;-72
2022/08/14 00:08:36;;;;;;;;;;;25.70;33.60;;;;;;1531564;76;686;-70
2022/08/14 00:10:38;;;;;;;;;;;25.80;33.50;;;;;;1534663;76;1934;-74
2022/08/14 00:12:40;;;;;;;;;;;25.70;33.50;;;;;;1537458;76;774;-73
2022/08/14 00:14:42;;;;;;;;;;;25.70;33.50;;;;;;1530210;76;750;-73
2022/08/14 00:16:44;;;;;;;;;;;25.70;33.50;;;;;;1529194;76;1199;-73
2022/08/14 00:18:46;;;;;;;;;;;25.70;33.50;;;;;;1528396;77;833;-73
2022/08/14 00:20:48;;;;;;;;;;;25.70;33.50;;;;;;1528916;77;691;-72
2022/08/14 00:22:50;;;;;;;;;;;25.70;33.50;;;;;;1519274;76;1711;-73
2022/08/14 00:24:52;;;;;;;;;;;25.70;33.60;;;;;;1528062;76;595;-73
2022/08/14 00:26:53;;;;;;;;;;;25.70;33.50;;;;;;1526902;76;1151;-73
2022/08/14 00:28:56;;;;;;;;;;;25.70;33.50;;;;;;1524557;76;730;-73
2022/08/14 00:30:58;;;;;;;;;;;25.70;33.50;;;;;;1530113;76;1926;-74
2022/08/14 00:33:01;;;;;;;;;;;25.70;33.50;;;;;;1529844;76;728;-72
2022/08/14 00:35:04;;;;;;;;;;;25.70;33.50;;;;;;1532427;76;714;-75
2022/08/14 00:37:05;;;;;;;;;;;25.70;33.50;;;;;;1525953;76;1178;-72
2022/08/14 00:39:07;;;;;;;;;;;25.60;33.60;;;;;;1528323;76;804;-71
2022/08/14 00:41:09;;;;;;;;;;;25.70;33.50;;;;;;1533545;76;689;-67
2022/08/14 00:43:11;;;;;;;;;;;25.70;33.50;;;;;;1526101;76;718;-71
2022/08/14 00:45:13;;;;;;;;;;;25.70;33.50;;;;;;1530148;76;783;-72
2022/08/14 00:47:15;;;;;;;;;;;25.70;33.50;;;;;;1533112;76;1273;-71
2022/08/14 00:49:17;;;;;;;;;;;25.70;33.50;;;;;;1528441;76;742;-72
2022/08/14 00:51:20;;;;;;;;;;;25.70;33.50;;;;;;1528757;76;1952;-74
2022/08/14 00:53:22;;;;;;;;;;;25.70;33.50;;;;;;1529271;76;820;-73
2022/08/14 00:55:24;;;;;;;;;;;25.60;33.50;;;;;;1531366;76;769;-73
2022/08/14 00:57:27;;;;;;;;;;;25.60;33.60;;;;;;1535931;76;1145;-73
2022/08/14 00:59:30;;;;;;;;;;;25.60;33.60;;;;;;1530524;76;759;-73
2022/08/14 01:01:32;;;;;;;;;;;25.60;33.60;;;;;;1528222;76;780;-76
2022/08/14 01:03:36;;;;;;;;;;;25.70;33.60;;;;;;1528799;76;716;-75
2022/08/14 01:05:37;;;;;;;;;;;25.60;33.70;;;;;;1529633;75;1571;-73
2022/08/14 01:07:39;;;;;;;;;;;25.60;33.60;;;;;;1526696;76;1127;-74
2022/08/14 01:09:41;;;;;;;;;;;25.60;33.70;;;;;;1525513;76;733;-76
2022/08/14 01:11:43;;;;;;;;;;;25.60;33.70;;;;;;1522001;76;1952;-74
2022/08/14 01:13:45;;;;;;;;;;;25.60;33.60;;;;;;1527220;76;740;-75
2022/08/14 01:15:48;;;;;;;;;;;25.70;33.70;;;;;;1526520;76;778;-76
2022/08/14 01:22:29;;;;;;;;;;;25.60;33.60;;;;;;1524362;76;1669;-72
2022/08/14 01:24:31;;;;;;;;;;;25.60;33.60;;;;;;1526382;76;752;-73
2022/08/14 01:26:34;;;;;;;;;;;25.60;33.60;;;;;;1528401;76;1167;-75
2022/08/14 01:28:36;;;;;;;;;;;25.50;33.70;;;;;;1527849;76;698;-73
2022/08/14 01:30:38;;;;;;;;;;;25.60;33.60;;;;;;1525029;76;677;-74
2022/08/14 01:32:40;;;;;;;;;;;25.50;33.60;;;;;;1526842;77;1952;-74
2022/08/14 01:34:42;;;;;;;;;;;25.50;33.60;;;;;;1521768;76;789;-71
2022/08/14 01:36:44;;;;;;;;;;;25.60;33.60;;;;;;1524197;76;1145;-71
2022/08/14 01:38:47;;;;;;;;;;;25.60;33.60;;;;;;1526800;76;709;-73
2022/08/14 01:40:49;;;;;;;;;;;25.60;33.60;;;;;;1522952;76;734;-73
2022/08/14 01:42:51;;;;;;;;;;;25.60;33.60;;;;;;1518219;77;726;-74
2022/08/14 01:44:54;;;;;;;;;;;25.60;33.60;;;;;;1527224;76;806;-72
2022/08/14 01:46:57;;;;;;;;;;;25.60;33.60;;;;;;1527501;76;1114;-75
2022/08/14 01:49:00;;;;;;;;;;;25.60;33.60;;;;;;1526811;76;730;-73
2022/08/14 01:51:02;;;;;;;;;;;25.60;33.60;;;;;;1523770;76;1938;-75
2022/08/14 01:53:03;;;;;;;;;;;25.60;33.60;;;;;;1526515;76;756;-72
2022/08/14 01:55:07;;;;;;;;;;;25.60;33.60;;;;;;1531937;76;736;-73
2022/08/14 01:57:10;;;;;;;;;;;25.50;33.60;;;;;;1522691;76;1149;-73
2022/08/14 01:59:18;;;;;;;;;;;25.50;33.60;;;;;;1528361;76;724;-73
2022/08/14 02:01:20;;;;;;;;;;;25.60;33.60;;;;;;1532951;76;658;-75
2022/08/14 02:03:25;;;;;;;;;;;25.50;33.60;;;;;;1528463;76;715;-75
2022/08/14 02:05:28;;;;;;;;;;;25.50;33.60;;;;;;1531702;76;704;-74
2022/08/14 02:07:31;;;;;;;;;;;25.60;33.60;;;;;;1513466;76;1161;-74
2022/08/14 02:09:37;;;;;;;;;;;25.60;33.60;;;;;;1524525;76;709;-74
2022/08/14 02:11:36;;;;;;;;;;;25.60;33.60;;;;;;1516080;76;1947;-73
2022/08/14 02:13:38;;;;;;;;;;;25.50;33.60;;;;;;1523371;76;809;-74
2022/08/14 02:15:41;;;;;;;;;;;25.50;33.70;;;;;;1524228;76;1548;-73
2022/08/14 02:17:43;;;;;;;;;;;25.50;33.60;;;;;;1528725;73;2095;-69
2022/08/14 02:19:45;;;;;;;;;;;25.50;33.60;;;;;;1538388;76;685;-69
2022/08/14 02:21:47;;;;;;;;;;;25.50;33.60;;;;;;1526483;76;685;-69
2022/08/14 02:23:50;;;;;;;;;;;25.50;33.60;;;;;;1536516;76;742;-68
2022/08/14 02:25:52;;;;;;;;;;;25.50;33.60;;;;;;1535597;76;712;-69
2022/08/14 02:27:55;;;;;;;;;;;25.50;33.60;;;;;;1545070;74;1179;-68
2022/08/14 02:29:57;;;;;;;;;;;25.50;33.60;;;;;;1541189;76;739;-69
2022/08/14 02:31:59;;;;;;;;;;;25.50;33.60;;;;;;1540977;76;1924;-68
2022/08/14 02:34:05;;;;;;;;;;;25.50;33.70;;;;;;1540324;76;788;-69
2022/08/14 02:36:08;;;;;;;;;;;25.50;33.60;;;;;;1537343;76;762;-68
2022/08/14 02:38:10;;;;;;;;;;;25.50;33.70;;;;;;1553439;75;1211;-69
2022/08/14 02:40:13;;;;;;;;;;;25.50;33.60;;;;;;1527805;76;625;-69
2022/08/14 02:42:16;;;;;;;;;;;25.50;33.60;;;;;;1542210;76;788;-69
2022/08/14 02:44:21;;;;;;;;;;;25.50;33.70;;;;;;1537053;76;717;-70
2022/08/14 02:46:21;;;;;;;;;;;25.50;33.70;;;;;;1537475;76;1156;-67
2022/08/14 02:48:30;;;;;;;;;;;25.50;33.70;;;;;;1540730;76;800;-70
2022/08/14 02:50:27;;;;;;;;;;;25.50;33.70;;;;;;1535854;76;1116;-69
2022/08/14 02:52:29;;;;;;;;;;;25.50;33.70;;;;;;1535482;76;1925;-70
2022/08/14 02:54:33;;;;;;;;;;;25.50;33.80;;;;;;1541615;76;866;-72
2022/08/14 02:56:37;;;;;;;;;;;25.50;33.80;;;;;;1542599;76;1829;-71
2022/08/14 02:58:39;;;;;;;;;;;25.50;33.70;;;;;;1537755;76;1069;-70
2022/08/14 03:00:42;;;;;;;;;;;25.50;33.70;;;;;;1533492;76;731;-70
2022/08/14 03:02:43;;;;;;;;;;;25.50;33.80;;;;;;1522771;76;718;-70
2022/08/14 03:04:46;;;;;;;;;;;25.50;33.70;;;;;;1536193;76;793;-71
2022/08/14 03:06:48;;;;;;;;;;;25.50;33.80;;;;;;1537163;76;1145;-69
2022/08/14 03:08:51;;;;;;;;;;;25.50;33.80;;;;;;1538588;76;713;-70
2022/08/14 03:10:53;;;;;;;;;;;25.50;33.80;;;;;;1538208;76;1475;-70
2022/08/14 03:12:56;;;;;;;;;;;25.50;33.80;;;;;;1540479;76;1943;-70
2022/08/14 03:14:58;;;;;;;;;;;25.50;33.70;;;;;;1537478;76;585;-69
2022/08/14 03:17:00;;;;;;;;;;;25.50;33.80;;;;;;1542430;76;1205;-70
2022/08/14 03:19:02;;;;;;;;;;;25.50;33.70;;;;;;1537050;76;777;-70
2022/08/14 03:21:04;;;;;;;;;;;25.50;33.80;;;;;;1541053;76;724;-70
2022/08/14 03:23:06;;;;;;;;;;;25.50;33.80;;;;;;1538742;76;691;-70
2022/08/14 03:25:10;;;;;;;;;;;25.50;33.80;;;;;;1538521;76;780;-70
2022/08/14 03:27:12;;;;;;;;;;;25.50;33.80;;;;;;1549488;74;1599;-70
2022/08/14 03:29:19;;;;;;;;;;;25.50;33.80;;;;;;1536284;76;739;-67
2022/08/14 03:31:22;;;;;;;;;;;25.50;33.80;;;;;;1537535;76;1549;-71
2022/08/14 03:33:26;;;;;;;;;;;25.50;33.90;;;;;;1535925;76;1916;-71
2022/08/14 03:35:29;;;;;;;;;;;25.50;33.80;;;;;;1536757;76;636;-72
2022/08/14 03:37:32;;;;;;;;;;;25.50;33.80;;;;;;1537233;76;1145;-70
2022/08/14 03:39:34;;;;;;;;;;;25.50;33.70;;;;;;1535978;76;793;-70
2022/08/14 03:41:36;;;;;;;;;;;25.50;33.80;;;;;;1547240;76;718;-71
2022/08/14 03:43:38;;;;;;;;;;;25.50;33.80;;;;;;1532952;75;688;-70
2022/08/14 03:45:40;;;;;;;;;;;25.50;33.80;;;;;;1536673;76;793;-70
2022/08/14 03:47:42;;;;;;;;;;;25.50;33.80;;;;;;1536880;76;1137;-70
2022/08/14 03:49:45;;;;;;;;;;;25.40;33.90;;;;;;1538585;76;738;-70
2022/08/14 03:51:47;;;;;;;;;;;25.40;33.90;;;;;;1539264;76;1923;-69
2022/08/14 03:53:50;;;;;;;;;;;25.50;33.90;;;;;;1538588;76;714;-71
2022/08/14 03:55:57;;;;;;;;;;;25.40;33.90;;;;;;1543941;76;694;-71
2022/08/14 03:57:55;;;;;;;;;;;25.40;34.00;;;;;;1536417;76;1156;-70
2022/08/14 03:59:57;;;;;;;;;;;25.40;34.00;;;;;;1538204;76;801;-70
2022/08/14 04:01:59;;;;;;;;;;;25.40;34.00;;;;;;1537233;76;746;-70
2022/08/14 04:04:04;;;;;;;;;;;25.40;34.00;;;;;;1532973;76;703;-70
2022/08/14 04:06:06;;;;;;;;;;;25.30;34.10;;;;;;1538531;76;993;-70
2022/08/14 04:08:08;;;;;;;;;;;25.40;34.10;;;;;;1536522;76;1424;-70
2022/08/14 04:10:10;;;;;;;;;;;25.30;34.10;;;;;;1537311;76;708;-70
2022/08/14 04:12:11;;;;;;;;;;;25.40;34.20;;;;;;1538592;76;1930;-70
2022/08/14 04:14:13;;;;;;;;;;;25.40;34.20;;;;;;1552906;75;752;-70
2022/08/14 04:16:16;;;;;;;;;;;25.40;34.20;;;;;;1537307;76;802;-70
2022/08/14 04:18:18;;;;;;;;;;;25.30;34.20;;;;;;1535589;76;1092;-70
2022/08/14 04:20:20;;;;;;;;;;;25.30;34.30;;;;;;1540702;76;686;-71
2022/08/14 04:22:23;;;;;;;;;;;25.30;34.30;;;;;;1538369;76;761;-70
2022/08/14 04:24:25;;;;;;;;;;;25.30;34.30;;;;;;1542436;76;825;-70
2022/08/14 04:26:28;;;;;;;;;;;25.30;34.30;;;;;;1546871;76;1165;-70
2022/08/14 04:28:30;;;;;;;;;;;25.30;34.40;;;;;;1536958;76;709;-70
2022/08/14 04:30:38;;;;;;;;;;;25.30;34.40;;;;;;1537576;76;719;-70
2022/08/14 04:32:36;;;;;;;;;;;25.30;34.40;;;;;;1535812;76;1936;-69
2022/08/14 04:34:40;;;;;;;;;;;25.30;34.40;;;;;;1542709;76;609;-69
2022/08/14 04:43:41;;;;;;;;;;;25.30;34.50;;;;;;1538308;76;1660;-70
2022/08/14 04:45:43;;;;;;;;;;;25.20;34.60;;;;;;1529943;76;728;-69
2022/08/14 04:50:05;;;;;;;;;;;25.20;34.60;;;;;;1537645;76;1636;-71
2022/08/14 04:52:08;;;;;;;;;;;25.20;34.70;;;;;;1537463;76;1919;-72
2022/08/14 04:54:10;;;;;;;;;;;25.30;34.70;;;;;;1538644;76;697;-72
2022/08/14 04:56:12;;;;;;;;;;;25.30;34.70;;;;;;1544140;76;774;-72
2022/08/14 04:58:16;;;;;;;;;;;25.30;34.70;;;;;;1535079;76;1110;-70
2022/08/14 05:00:18;;;;;;;;;;;25.30;34.70;;;;;;1533975;76;778;-70
2022/08/14 05:02:23;;;;;;;;;;;25.20;34.70;;;;;;1536836;76;728;-70
2022/08/14 05:04:24;;;;;;;;;;;25.30;34.70;;;;;;1532515;76;1616;-70
2022/08/14 05:06:26;;;;;;;;;;;25.30;34.80;;;;;;1529305;76;1155;-70
2022/08/14 05:08:29;;;;;;;;;;;25.20;34.70;;;;;;1536353;76;719;-70
2022/08/14 05:10:30;;;;;;;;;;;25.30;34.80;;;;;;1538007;76;760;-71
2022/08/14 05:12:32;;;;;;;;;;;25.30;34.80;;;;;;1540757;76;1928;-71
2022/08/14 05:14:34;;;;;;;;;;;25.30;34.90;;;;;;1553560;75;571;-72
2022/08/14 05:16:36;;;;;;;;;;;25.30;35.00;;;;;;1538499;76;1149;-72
2022/08/14 05:18:38;;;;;;;;;;;25.30;35.10;;;;;;1535535;76;786;-71
2022/08/14 05:20:42;;;;;;;;;;;25.40;35.10;;;;;;1545526;76;741;-71
2022/08/14 05:22:44;;;;;;;;;;;25.40;35.20;;;;;;1532211;76;764;-70
2022/08/14 05:24:51;;;;;;;;;;;25.40;35.20;;;;;;1537966;76;733;-71
2022/08/14 05:26:50;;;;;;;;;;;25.40;35.10;;;;;;1543282;76;1178;-70
2022/08/14 05:28:52;;;;;;;;;;;25.50;35.20;;;;;;1538678;76;732;-70
2022/08/14 05:30:56;;;;;;;;;;;25.50;35.20;;;;;;1538509;76;766;-70
2022/08/14 05:32:58;;;;;;;;;;;25.50;35.10;;;;;;1538476;76;1932;-70
2022/08/14 05:35:00;;;;;;;;;;;25.50;35.10;;;;;;1537986;76;598;-72
2022/08/14 05:37:02;;;;;;;;;;;25.50;35.20;;;;;;1532926;76;1125;-71
2022/08/14 05:39:04;;;;;;;;;;;25.50;35.20;;;;;;1537331;76;736;-71
2022/08/14 05:41:07;;;;;;;;;;;25.50;35.20;;;;;;1539352;76;750;-72
2022/08/14 05:43:09;;;;;;;;;;;25.60;35.20;;;;;;1530645;76;810;-70
2022/08/14 05:45:13;;;;;;;;;;;25.70;35.10;;;;;;1536062;76;732;-70
2022/08/14 05:47:15;;;;;;;;;;;25.70;35.20;;;;;;1533746;76;1142;-70
2022/08/14 05:49:17;;;;;;;;;;;25.70;35.10;;;;;;1539055;76;678;-70
2022/08/14 05:51:19;;;;;;;;;;;25.70;35.10;;;;;;1532643;76;794;-69
2022/08/14 05:53:22;;;;;;;;;;;25.70;35.10;;;;;;1538107;76;1900;-73
2022/08/14 05:55:24;;;;;;;;;;;25.70;35.20;;;;;;1540056;76;774;-71
2022/08/14 05:57:26;;;;;;;;;;;25.80;35.10;;;;;;1541109;75;1143;-71
2022/08/14 05:59:27;;;;;;;;;;;25.80;35.10;;;;;;1538201;76;1631;-72
2022/08/14 06:01:29;;;;;;;;;;;25.80;35.10;;;;;;1537820;76;707;-72
2022/08/14 06:03:31;;;;;;;;;;;25.80;35.20;;;;;;1534720;76;728;-72
2022/08/14 06:05:33;;;;;;;;;;;25.80;35.20;;;;;;1534615;76;761;-72
2022/08/14 06:07:35;;;;;;;;;;;25.80;35.20;;;;;;1531872;76;1088;-71
2022/08/14 06:09:37;;;;;;;;;;;25.80;35.20;;;;;;1538954;76;825;-71
2022/08/14 06:11:39;;;;;;;;;;;25.80;35.30;;;;;;1536289;76;725;-71
2022/08/14 06:13:42;;;;;;;;;;;25.80;35.20;;;;;;1537533;76;1935;-70
2022/08/14 06:15:44;;;;;;;;;;;25.80;35.20;;;;;;1533205;76;810;-70
2022/08/14 06:17:50;;;;;;;;;;;25.90;35.20;;;;;;1538870;76;1125;-69
2022/08/14 06:19:52;;;;;;;;;;;25.80;35.20;;;;;;1538357;76;1640;-70
2022/08/14 06:21:54;;;;;;;;;;;25.90;35.30;;;;;;1536092;76;719;-71
2022/08/14 06:23:56;;;;;;;;;;;25.90;35.60;;;;;;1541371;76;763;-70
2022/08/14 06:25:58;;;;;;;;;;;25.90;35.70;;;;;;1539078;76;744;-70
2022/08/14 06:28:00;;;;;;;;;;;25.90;36.00;;;;;;1538515;76;1237;-71
2022/08/14 06:30:01;;;;;;;;;;;25.90;36.40;;;;;;1539185;76;725;-70
2022/08/14 06:32:03;;;;;;;;;;;25.80;36.70;;;;;;1539433;76;734;-69
2022/08/14 06:34:05;;;;;;;;;;;25.80;36.50;;;;;;1532850;76;1929;-69
2022/08/14 06:36:07;;;;;;;;;;;25.90;36.00;;;;;;1533992;76;704;-67
2022/08/14 06:38:11;;;;;;;;;;;25.90;35.70;;;;;;1527280;76;1133;-68
2022/08/14 06:40:13;;;;;;;;;;;25.90;35.50;;;;;;1533282;75;1630;-69
2022/08/14 06:42:15;;;;;;;;;;;26.00;36.10;;;;;;1534543;76;732;-69
2022/08/14 06:44:17;;;;;;;;;;;26.00;36.00;;;;;;1529768;76;655;-69
2022/08/14 06:46:19;;;;;;;;;;;25.90;35.40;;;;;;1533238;76;745;-70
2022/08/14 06:48:22;;;;;;;;;;;26.00;36.00;;;;;;1526775;76;1118;-69
2022/08/14 06:50:26;;;;;;;;;;;26.00;36.00;;;;;;1528329;76;726;-69
2022/08/14 06:52:28;;;;;;;;;;;25.90;35.50;;;;;;1535931;76;1507;-69
2022/08/14 06:54:30;;;;;;;;;;;25.90;35.50;;;;;;1535203;76;1929;-69
2022/08/14 06:56:32;;;;;;;;;;;26.00;35.90;;;;;;1534212;76;1291;-70
2022/08/14 06:58:34;;;;;;;;;;;26.10;35.90;;;;;;1522836;76;784;-71
2022/08/14 07:00:36;;;;;;;;;;;26.00;35.90;;;;;;1538966;76;800;-65
2022/08/14 07:07:17;;;;;;;;;;;26.00;35.90;;;;;;1534851;76;1658;-69
2022/08/14 07:09:19;;;;;;;;;;;26.00;36.10;;;;;;1539466;76;797;-68
2022/08/14 07:11:21;;;;;;;;;;;26.00;36.20;;;;;;1536890;76;792;-70
2022/08/14 07:13:23;;;;;;;;;;;26.00;36.20;;;;;;1538195;76;1909;-69
2022/08/14 07:15:25;;;;;;;;;;;26.00;36.20;;;;;;1538110;76;789;-70
2022/08/14 07:17:27;;;;;;;;;;;26.10;36.50;;;;;;1540100;76;1154;-68
2022/08/14 07:19:29;;;;;;;;;;;26.00;36.40;;;;;;1540437;76;778;-67
2022/08/14 07:21:31;;;;;;;;;;;26.10;36.30;;;;;;1538658;76;716;-66
2022/08/14 07:23:33;;;;;;;;;;;26.20;36.20;;;;;;1539048;76;820;-69
2022/08/14 07:25:36;;;;;;;;;;;26.20;36.30;;;;;;1539572;76;712;-67
2022/08/14 07:27:41;;;;;;;;;;;26.30;36.30;;;;;;1539354;76;1717;-68
2022/08/14 07:29:43;;;;;;;;;;;26.30;36.30;;;;;;1536979;76;708;-68
2022/08/14 07:31:45;;;;;;;;;;;26.30;36.30;;;;;;1539010;76;748;-67
2022/08/14 07:33:51;;;;;;;;;;;26.30;36.20;;;;;;1537478;76;1939;-68
2022/08/14 07:35:50;;;;;;;;;;;26.20;36.20;;;;;;1538020;76;1539;-71
2022/08/14 07:37:52;;;;;;;;;;;26.20;36.40;;;;;;1553880;75;1108;-68
2022/08/14 07:39:54;;;;;;;;;;;26.10;36.80;;;;;;1539441;76;712;-68
2022/08/14 07:41:57;;;;;;;;;;;26.00;37.00;;;;;;1541482;76;746;-70
2022/08/14 07:43:59;;;;;;;;;;;26.00;37.30;;;;;;1534566;76;807;-68
2022/08/14 07:46:01;;;;;;;;;;;25.90;37.10;;;;;;1532418;76;727;-67
2022/08/14 07:48:05;;;;;;;;;;;25.90;37.20;;;;;;1533747;76;1103;-67
2022/08/14 07:50:14;;;;;;;;;;;25.90;37.50;;;;;;1539684;76;704;-67
2022/08/14 07:52:16;;;;;;;;;;;25.90;37.50;;;;;;1535248;76;1637;-69
2022/08/14 07:54:19;;;;;;;;;;;25.90;37.30;;;;;;1536846;76;1946;-70
2022/08/14 07:56:20;;;;;;;;;;;25.90;37.40;;;;;;1538350;76;675;-73
2022/08/14 07:58:22;;;;;;;;;;;25.90;37.30;;;;;;1530028;76;1162;-69
2022/08/14 08:00:25;;;;;;;;;;;26.00;37.80;;;;;;1537155;76;662;-68
2022/08/14 08:02:27;;;;;;;;;;;26.10;37.50;;;;;;1533890;76;727;-68
2022/08/14 08:04:29;;;;;;;;;;;26.30;37.00;;;;;;1536317;76;723;-69
2022/08/14 08:06:31;;;;;;;;;;;26.30;36.80;;;;;;1532156;75;1155;-69
2022/08/14 08:08:33;;;;;;;;;;;26.20;36.90;;;;;;1534915;76;1096;-68
2022/08/14 08:10:37;;;;;;;;;;;26.20;37.10;;;;;;1543628;76;705;-68
2022/08/14 08:12:38;;;;;;;;;;;26.10;37.40;;;;;;1541642;76;1640;-70
2022/08/14 08:14:42;;;;;;;;;;;26.20;37.30;;;;;;1553072;75;1978;-71
2022/08/14 08:19:07;;;;;;;;;;;26.30;37.30;;;;;;1471495;79;695;-72
2022/08/14 08:21:10;;;;;;;;;;;26.20;37.50;;;;;;1507488;77;752;-73
2022/08/14 08:23:13;;;;;;;;;;;26.20;37.60;;;;;;1488881;78;714;-73
2022/08/14 08:25:15;;;;;;;;;;;26.20;37.70;;;;;;1471507;79;757;-73
2022/08/14 08:27:18;;;;;;;;;;;26.20;37.80;;;;;;1482904;79;1262;-73
2022/08/14 08:29:20;;;;;;;;;;;26.20;37.80;;;;;;1524108;76;757;-73
2022/08/14 08:31:22;;;;;;;;;;;26.20;37.70;;;;;;1528524;77;774;-68
2022/08/14 08:33:26;;;;;;;;;;;26.30;37.50;;;;;;1528028;77;1956;-73
2022/08/14 08:35:29;;;;;;;;;;;26.30;37.50;;;;;;1528890;76;695;-70
2022/08/14 08:37:31;;;;;;;;;;;26.30;37.40;;;;;;1520027;77;1152;-72
2022/08/14 08:39:34;;;;;;;;;;;26.20;37.60;;;;;;1488100;78;1219;-73
2022/08/14 08:41:44;;;;;;;;;;;26.10;37.80;;;;;;1519220;77;1895;-72
2022/08/14 08:43:46;;;;;;;;;;;26.00;37.80;;;;;;1530366;76;769;-72
2022/08/14 08:45:54;;;;;;;;;;;26.00;38.10;;;;;;1531277;76;759;-74
2022/08/14 08:47:57;;;;;;;;;;;25.90;37.60;;;;;;1532069;77;1613;-71
2022/08/14 08:49:58;;;;;;;;;;;26.00;38.20;;;;;;1492360;78;756;-72
2022/08/14 08:52:03;;;;;;;;;;;26.00;38.40;;;;;;1505594;77;794;-72
2022/08/14 08:54:11;;;;;;;;;;;26.10;37.80;;;;;;1503199;77;1926;-72
2022/08/14 08:56:13;;;;;;;;;;;26.30;37.50;;;;;;1519777;77;787;-70
2022/08/14 08:58:16;;;;;;;;;;;26.30;37.30;;;;;;1508769;77;1135;-70
2022/08/14 09:00:18;;;;;;;;;;;26.20;37.30;;;;;;1497312;78;744;-70
2022/08/14 09:02:20;;;;;;;;;;;26.10;37.60;;;;;;1522478;77;763;-69
2022/08/14 09:04:22;;;;;;;;;;;26.10;37.80;;;;;;1522490;77;772;-72
2022/08/14 09:06:23;;;;;;;;;;;26.10;37.60;;;;;;1521849;77;734;-74
2022/08/14 09:08:26;;;;;;;;;;;26.20;37.40;;;;;;1513109;77;1149;-71
2022/08/14 09:10:28;;;;;;;;;;;26.30;37.10;;;;;;1501647;77;716;-75
2022/08/14 09:12:31;;;;;;;;;;;26.40;36.80;;;;;;1526407;76;695;-75
2022/08/14 09:14:35;;;;;;;;;;;26.40;36.70;;;;;;1511076;77;1909;-75
2022/08/14 09:16:37;;;;;;;;;;;26.40;36.60;;;;;;1531796;76;1061;-74
2022/08/14 09:18:39;;;;;;;;;;;26.40;36.50;;;;;;1520178;77;1127;-74
2022/08/14 09:20:41;;;;;;;;;;;26.30;36.60;;;;;;1522130;77;745;-71
2022/08/14 09:22:44;;;;;;;;;;;26.40;36.40;;;;;;1520852;77;807;-75
2022/08/14 09:24:46;;;;;;;;;;;26.40;36.10;;;;;;1517566;77;810;-74
2022/08/14 09:26:48;;;;;;;;;;;26.40;36.10;;;;;;1506591;77;750;-71
2022/08/14 09:28:50;;;;;;;;;;;26.30;36.30;;;;;;1511166;77;704;-72
2022/08/14 09:30:56;;;;;;;;;;;26.20;36.50;;;;;;1509115;77;711;-72
2022/08/14 09:32:57;;;;;;;;;;;26.20;36.60;;;;;;1517560;77;1528;-71
2022/08/14 09:35:17;;;;;;;;;;;26.20;36.80;;;;;;1511747;77;1970;-69
2022/08/14 09:37:39;;;;;;;;;;;26.10;36.80;;;;;;1508996;77;1143;-74
2022/08/14 09:39:49;;;;;;;;;;;26.00;37.00;;;;;;1506583;77;720;-74
2022/08/14 09:42:02;;;;;;;;;;;26.10;36.80;;;;;;1509850;77;1227;-72
2022/08/14 09:44:08;;;;;;;;;;;26.20;36.80;;;;;;1508527;77;1562;-74
2022/08/14 09:46:11;;;;;;;;;;;26.20;36.50;;;;;;1508600;77;648;-74
2022/08/14 09:48:15;;;;;;;;;;;26.30;36.40;;;;;;1511688;77;1144;-71
2022/08/14 09:50:25;;;;;;;;;;;26.30;36.30;;;;;;1508115;77;962;-73
2022/08/14 09:52:27;;;;;;;;;;;26.20;36.40;;;;;;1513863;77;764;-74
2022/08/14 09:54:30;;;;;;;;;;;26.30;36.20;;;;;;1517023;77;1925;-71
2022/08/14 09:56:45;;;;;;;;;;;26.30;36.00;;;;;;1515926;77;1099;-70
2022/08/14 09:58:47;;;;;;;;;;;26.20;35.70;;;;;;1506521;77;1142;-73
2022/08/14 10:00:50;;;;;;;;;;;26.20;35.80;;;;;;1513455;77;738;-67
2022/08/14 10:02:52;;;;;;;;;;;26.20;35.90;;;;;;1508438;77;748;-71
2022/08/14 10:05:12;;;;;;;;;;;26.20;35.90;;;;;;1511338;77;818;-70
2022/08/14 10:07:11;;;;;;;;;;;26.20;35.90;;;;;;1509735;77;1242;-72
2022/08/14 10:09:13;;;;;;;;;;;26.20;35.80;;;;;;1513981;77;755;-70
2022/08/14 10:11:19;;;;;;;;;;;26.20;35.70;;;;;;1520192;77;750;-74
2022/08/14 10:13:24;;;;;;;;;;;26.20;35.90;;;;;;1515846;77;723;-72
2022/08/14 10:15:27;;;;;;;;;;;26.20;36.00;;;;;;1510755;77;1928;-73
2022/08/14 10:17:29;;;;;;;;;;;26.20;35.80;;;;;;1515898;77;1155;-72
2022/08/14 10:19:31;;;;;;;;;;;26.20;35.40;;;;;;1513195;77;849;-74
2022/08/14 10:21:33;;;;;;;;;;;26.20;35.50;;;;;;1512593;77;746;-74
2022/08/14 10:23:43;;;;;;;;;;;26.20;35.60;;;;;;1511999;77;727;-73
2022/08/14 10:25:49;;;;;;;;;;;26.40;35.20;;;;;;1519850;77;810;-72
2022/08/14 10:27:51;;;;;;;;;;;26.40;35.00;;;;;;1518496;77;1544;-74
2022/08/14 10:29:54;;;;;;;;;;;26.50;34.70;;;;;;1517406;77;1142;-72
2022/08/14 10:31:58;;;;;;;;;;;26.50;34.60;;;;;;1509948;77;793;-73
2022/08/14 10:34:07;;;;;;;;;;;26.60;34.50;;;;;;1512226;77;706;-72
2022/08/14 10:36:09;;;;;;;;;;;26.60;34.30;;;;;;1517353;77;729;-71
2022/08/14 10:38:11;;;;;;;;;;;26.60;34.00;;;;;;1514111;77;1145;-73
2022/08/14 10:40:13;;;;;;;;;;;26.60;34.00;;;;;;1516777;77;1568;-72
2022/08/14 10:42:15;;;;;;;;;;;26.60;33.90;;;;;;1519489;77;783;-74
2022/08/14 10:44:18;;;;;;;;;;;26.60;33.90;;;;;;1516127;77;737;-76
2022/08/14 10:46:20;;;;;;;;;;;26.60;33.80;;;;;;1515441;77;705;-73
2022/08/14 10:48:22;;;;;;;;;;;26.70;33.80;;;;;;1513278;77;1192;-74
2022/08/14 10:50:30;;;;;;;;;;;26.60;33.70;;;;;;1518657;77;728;-74
2022/08/14 10:52:33;;;;;;;;;;;26.50;33.60;;;;;;1513930;77;747;-73
2022/08/14 10:54:40;;;;;;;;;;;26.60;33.60;;;;;;1518120;77;1903;-72
2022/08/14 10:56:42;;;;;;;;;;;26.60;33.50;;;;;;1518140;77;1963;-75
2022/08/14 10:58:44;;;;;;;;;;;26.60;33.40;;;;;;1513905;77;1093;-72
2022/08/14 11:00:47;;;;;;;;;;;26.50;33.40;;;;;;1520107;77;734;-74
2022/08/14 11:02:56;;;;;;;;;;;26.60;33.20;;;;;;1504320;77;1133;-73
2022/08/14 11:04:59;;;;;;;;;;;26.50;33.10;;;;;;1509459;77;783;-73
2022/08/14 11:07:01;;;;;;;;;;;26.50;33.10;;;;;;1512476;77;1143;-72
2022/08/14 11:09:04;;;;;;;;;;;26.50;33.00;;;;;;1519406;77;718;-73
2022/08/14 11:11:06;;;;;;;;;;;26.50;33.10;;;;;;1520113;77;1584;-72
2022/08/14 11:13:08;;;;;;;;;;;26.50;32.90;;;;;;1513225;77;703;-74
2022/08/14 11:15:10;;;;;;;;;;;26.50;33.00;;;;;;1513723;77;1933;-74
2022/08/14 11:17:12;;;;;;;;;;;26.50;33.00;;;;;;1511406;77;1139;-72
2022/08/14 11:19:14;;;;;;;;;;;26.50;33.10;;;;;;1518306;77;806;-74
2022/08/14 11:21:17;;;;;;;;;;;26.50;32.90;;;;;;1515070;77;775;-72
2022/08/14 11:23:24;;;;;;;;;;;26.50;32.90;;;;;;1518297;77;737;-71
2022/08/14 11:25:28;;;;;;;;;;;26.60;32.90;;;;;;1517483;77;1798;-72
2022/08/14 11:27:30;;;;;;;;;;;26.60;32.80;;;;;;1519246;77;1168;-72
2022/08/14 11:29:32;;;;;;;;;;;26.60;32.80;;;;;;1511038;77;819;-72
2022/08/14 11:31:35;;;;;;;;;;;26.60;32.40;;;;;;1513827;77;647;-69
2022/08/14 11:33:38;;;;;;;;;;;26.50;32.60;;;;;;1517425;77;733;-73
2022/08/14 11:35:41;;;;;;;;;;;26.60;32.50;;;;;;1512190;77;1925;-72
2022/08/14 11:37:52;;;;;;;;;;;26.40;32.30;;;;;;1513519;77;1523;-70
2022/08/14 11:39:54;;;;;;;;;;;26.40;32.40;;;;;;1513691;77;688;-72
2022/08/14 11:41:56;;;;;;;;;;;26.50;32.10;;;;;;1515722;77;683;-74
2022/08/14 11:43:59;;;;;;;;;;;26.40;32.30;;;;;;1511835;77;868;-73
2022/08/14 11:46:01;;;;;;;;;;;26.50;32.30;;;;;;1516777;77;742;-72
2022/08/14 11:48:04;;;;;;;;;;;26.50;32.30;;;;;;1513467;77;1172;-72
2022/08/14 11:50:13;;;;;;;;;;;26.50;31.50;;;;;;1506456;77;1038;-73
2022/08/14 11:52:16;;;;;;;;;;;26.40;32.00;;;;;;1520203;77;673;-73
2022/08/14 11:54:18;;;;;;;;;;;26.50;31.90;;;;;;1527811;77;794;-74
2022/08/14 11:56:20;;;;;;;;;;;26.50;31.80;;;;;;1519253;77;1952;-67
2022/08/14 11:58:23;;;;;;;;;;;26.50;31.80;;;;;;1528602;77;1139;-70
2022/08/14 12:00:25;;;;;;;;;;;26.50;31.70;;;;;;1501459;77;733;-70
2022/08/14 12:02:27;;;;;;;;;;;26.40;31.60;;;;;;1521100;77;628;-71
2022/08/14 12:04:30;;;;;;;;;;;26.30;31.80;;;;;;1519982;77;745;-71
2022/08/14 12:06:32;;;;;;;;;;;26.40;31.30;;;;;;1520806;77;797;-70
2022/08/14 12:08:34;;;;;;;;;;;26.40;31.70;;;;;;1514162;77;1179;-70
2022/08/14 12:10:37;;;;;;;;;;;26.40;31.70;;;;;;1512441;77;651;-70
2022/08/14 12:12:39;;;;;;;;;;;26.50;31.70;;;;;;1515229;77;716;-70
2022/08/14 12:14:48;;;;;;;;;;;26.40;31.50;;;;;;1517471;77;1917;-70
2022/08/14 12:17:06;;;;;;;;;;;26.50;31.30;;;;;;1507221;77;1505;-70
2022/08/14 12:19:07;;;;;;;;;;;26.50;31.00;;;;;;1520724;77;1617;-70
2022/08/14 12:21:12;;;;;;;;;;;26.50;31.00;;;;;;1514695;77;758;-70
2022/08/14 12:23:22;;;;;;;;;;;26.50;30.90;;;;;;1514666;77;814;-70
2022/08/14 12:25:24;;;;;;;;;;;26.50;30.50;;;;;;1517392;77;1812;-70
2022/08/14 12:27:43;;;;;;;;;;;26.50;30.20;;;;;;1520993;77;1108;-70
2022/08/14 12:29:52;;;;;;;;;;;26.50;30.10;;;;;;1518843;77;837;-74
2022/08/14 12:31:58;;;;;;;;;;;26.50;29.80;;;;;;1515112;77;757;-72
2022/08/14 12:34:01;;;;;;;;;;;26.50;29.70;;;;;;1519017;77;1464;-72